Raven, Kentucky
Current Conditions -  °F | °C
As of 6:15 AM on Friday 28 Nov 2014 (Local Time) from KPBX Reporting Station
Overcast Overcast  
Wind Chill: -6°   Ceiling: 3100
Heat Index: -3°   Visibility: 10mi
Dew Point: -6°   Wind: 5mph
Humidity: 78%   Direction: 300°WNW
Pressure: 30.35"   Gusts: NA
Location:  37.41°N, 82.8°W
Report Text: KPBX 281115Z AUTO 30004KT 10SM SCT022 OVC031 M03/M06 A3035 RMK AO2 T10301064
Loading
Personal Weather Stations






























Interactive Weather Map New forecast layout! Learn more

10-Day Weather Forecast

Advertisements
Track Severe Weather on mobile